sensor_id;sensor_type;location;lat;lon;timestamp;P1;durP1;ratioP1;P2;durP2;ratioP2
21120;SDS011;12519;43.318;21.898;2022-08-02T00:01:19;6.0;;;6.0;;
21120;SDS011;12519;43.318;21.898;2022-08-02T00:05:55;6.0;;;6.0;;
21120;SDS011;12519;43.318;21.898;2022-08-02T00:10:32;6.0;;;6.0;;
21120;SDS011;12519;43.318;21.898;2022-08-02T00:15:10;6.0;;;6.0;;
21120;SDS011;12519;43.318;21.898;2022-08-02T00:19:46;6.0;;;5.0;;
21120;SDS011;12519;43.318;21.898;2022-08-02T00:24:23;6.0;;;5.0;;
21120;SDS011;12519;43.318;21.898;2022-08-02T00:29:00;6.0;;;5.0;;
21120;SDS011;12519;43.318;21.898;2022-08-02T00:33:36;6.0;;;5.0;;
21120;SDS011;12519;43.318;21.898;2022-08-02T00:38:14;6.0;;;5.0;;
21120;SDS011;12519;43.318;21.898;2022-08-02T00:43:04;7.0;;;5.0;;
21120;SDS011;12519;43.318;21.898;2022-08-02T00:47:46;7.0;;;5.0;;
21120;SDS011;12519;43.318;21.898;2022-08-02T00:52:24;6.0;;;5.0;;
21120;SDS011;12519;43.318;21.898;2022-08-02T00:57:00;6.0;;;5.0;;
21120;SDS011;12519;43.318;21.898;2022-08-02T01:01:37;6.0;;;5.0;;
21120;SDS011;12519;43.318;21.898;2022-08-02T01:06:13;6.0;;;5.0;;
21120;SDS011;12519;43.318;21.898;2022-08-02T01:10:51;6.0;;;5.0;;
21120;SDS011;12519;43.318;21.898;2022-08-02T01:15:28;6.0;;;5.0;;
21120;SDS011;12519;43.318;21.898;2022-08-02T01:20:59;5.0;;;5.0;;
21120;SDS011;12519;43.318;21.898;2022-08-02T01:26:44;5.0;;;5.0;;
21120;SDS011;12519;43.318;21.898;2022-08-02T01:31:40;6.0;;;5.0;;
21120;SDS011;12519;43.318;21.898;2022-08-02T01:36:56;6.0;;;5.0;;
21120;SDS011;12519;43.318;21.898;2022-08-02T01:41:57;6.0;;;5.0;;
21120;SDS011;12519;43.318;21.898;2022-08-02T01:46:44;6.0;;;5.0;;
21120;SDS011;12519;43.318;21.898;2022-08-02T01:51:39;6.0;;;5.0;;
21120;SDS011;12519;43.318;21.898;2022-08-02T01:56:28;6.0;;;5.0;;
21120;SDS011;12519;43.318;21.898;2022-08-02T02:01:12;5.0;;;5.0;;
21120;SDS011;12519;43.318;21.898;2022-08-02T02:06:06;5.0;;;5.0;;
21120;SDS011;12519;43.318;21.898;2022-08-02T02:10:55;6.0;;;5.0;;
21120;SDS011;12519;43.318;21.898;2022-08-02T02:15:48;6.0;;;5.0;;
21120;SDS011;12519;43.318;21.898;2022-08-02T02:20:41;6.0;;;5.0;;
21120;SDS011;12519;43.318;21.898;2022-08-02T02:25:22;6.0;;;5.0;;
21120;SDS011;12519;43.318;21.898;2022-08-02T02:30:03;6.0;;;6.0;;
21120;SDS011;12519;43.318;21.898;2022-08-02T02:34:52;6.0;;;6.0;;
21120;SDS011;12519;43.318;21.898;2022-08-02T02:39:44;6.0;;;6.0;;
21120;SDS011;12519;43.318;21.898;2022-08-02T02:44:35;6.0;;;6.0;;
21120;SDS011;12519;43.318;21.898;2022-08-02T02:49:22;6.0;;;6.0;;
21120;SDS011;12519;43.318;21.898;2022-08-02T02:54:03;6.0;;;6.0;;
21120;SDS011;12519;43.318;21.898;2022-08-02T02:58:46;6.0;;;6.0;;
21120;SDS011;12519;43.318;21.898;2022-08-02T03:03:24;6.0;;;6.0;;
21120;SDS011;12519;43.318;21.898;2022-08-02T03:08:04;6.0;;;6.0;;
21120;SDS011;12519;43.318;21.898;2022-08-02T03:12:40;6.0;;;6.0;;
21120;SDS011;12519;43.318;21.898;2022-08-02T03:17:17;6.0;;;6.0;;
21120;SDS011;12519;43.318;21.898;2022-08-02T03:21:54;5.0;;;5.0;;
21120;SDS011;12519;43.318;21.898;2022-08-02T03:26:31;5.0;;;5.0;;
21120;SDS011;12519;43.318;21.898;2022-08-02T03:31:07;6.0;;;6.0;;
21120;SDS011;12519;43.318;21.898;2022-08-02T03:35:50;6.0;;;6.0;;
21120;SDS011;12519;43.318;21.898;2022-08-02T03:40:38;8.0;;;6.0;;
21120;SDS011;12519;43.318;21.898;2022-08-02T03:45:21;8.0;;;6.0;;
21120;SDS011;12519;43.318;21.898;2022-08-02T03:50:01;8.0;;;6.0;;
21120;SDS011;12519;43.318;21.898;2022-08-02T03:54:39;8.0;;;6.0;;
21120;SDS011;12519;43.318;21.898;2022-08-02T03:59:16;7.0;;;7.0;;
21120;SDS011;12519;43.318;21.898;2022-08-02T04:03:53;7.0;;;7.0;;
21120;SDS011;12519;43.318;21.898;2022-08-02T04:08:30;7.0;;;7.0;;
21120;SDS011;12519;43.318;21.898;2022-08-02T04:13:08;7.0;;;6.0;;
21120;SDS011;12519;43.318;21.898;2022-08-02T04:17:54;7.0;;;6.0;;
21120;SDS011;12519;43.318;21.898;2022-08-02T04:22:52;7.0;;;6.0;;
21120;SDS011;12519;43.318;21.898;2022-08-02T04:27:45;7.0;;;6.0;;
21120;SDS011;12519;43.318;21.898;2022-08-02T04:32:27;6.0;;;6.0;;
21120;SDS011;12519;43.318;21.898;2022-08-02T04:37:12;6.0;;;6.0;;
21120;SDS011;12519;43.318;21.898;2022-08-02T04:41:51;6.0;;;6.0;;
21120;SDS011;12519;43.318;21.898;2022-08-02T04:46:31;6.0;;;6.0;;
21120;SDS011;12519;43.318;21.898;2022-08-02T04:51:13;6.0;;;6.0;;
21120;SDS011;12519;43.318;21.898;2022-08-02T04:55:50;6.0;;;6.0;;
21120;SDS011;12519;43.318;21.898;2022-08-02T05:00:29;7.0;;;6.0;;
21120;SDS011;12519;43.318;21.898;2022-08-02T05:05:07;7.0;;;6.0;;
21120;SDS011;12519;43.318;21.898;2022-08-02T05:09:45;8.0;;;7.0;;
21120;SDS011;12519;43.318;21.898;2022-08-02T05:14:22;8.0;;;7.0;;
21120;SDS011;12519;43.318;21.898;2022-08-02T05:19:00;8.0;;;7.0;;
21120;SDS011;12519;43.318;21.898;2022-08-02T05:23:38;9.0;;;8.0;;
21120;SDS011;12519;43.318;21.898;2022-08-02T05:28:16;9.0;;;8.0;;
21120;SDS011;12519;43.318;21.898;2022-08-02T05:32:52;10.0;;;9.0;;
21120;SDS011;12519;43.318;21.898;2022-08-02T05:37:29;10.0;;;9.0;;
21120;SDS011;12519;43.318;21.898;2022-08-02T05:42:06;11.0;;;10.0;;
21120;SDS011;12519;43.318;21.898;2022-08-02T05:46:42;11.0;;;10.0;;
21120;SDS011;12519;43.318;21.898;2022-08-02T05:51:37;12.0;;;12.0;;
21120;SDS011;12519;43.318;21.898;2022-08-02T05:56:33;12.0;;;12.0;;
21120;SDS011;12519;43.318;21.898;2022-08-02T06:01:34;14.0;;;13.0;;
21120;SDS011;12519;43.318;21.898;2022-08-02T06:06:24;14.0;;;13.0;;
21120;SDS011;12519;43.318;21.898;2022-08-02T06:11:16;13.0;;;12.0;;
21120;SDS011;12519;43.318;21.898;2022-08-02T06:16:04;13.0;;;12.0;;
21120;SDS011;12519;43.318;21.898;2022-08-02T06:20:49;12.0;;;10.0;;
21120;SDS011;12519;43.318;21.898;2022-08-02T06:25:29;12.0;;;10.0;;
21120;SDS011;12519;43.318;21.898;2022-08-02T06:30:10;13.0;;;10.0;;
21120;SDS011;12519;43.318;21.898;2022-08-02T06:34:48;13.0;;;10.0;;
21120;SDS011;12519;43.318;21.898;2022-08-02T06:39:44;14.0;;;11.0;;
21120;SDS011;12519;43.318;21.898;2022-08-02T06:44:34;14.0;;;11.0;;
21120;SDS011;12519;43.318;21.898;2022-08-02T06:49:10;14.0;;;11.0;;
21120;SDS011;12519;43.318;21.898;2022-08-02T06:53:47;13.0;;;10.0;;
21120;SDS011;12519;43.318;21.898;2022-08-02T06:58:25;13.0;;;10.0;;
21120;SDS011;12519;43.318;21.898;2022-08-02T07:03:03;12.0;;;10.0;;
21120;SDS011;12519;43.318;21.898;2022-08-02T07:07:41;12.0;;;10.0;;
21120;SDS011;12519;43.318;21.898;2022-08-02T07:12:17;10.0;;;10.0;;
21120;SDS011;12519;43.318;21.898;2022-08-02T07:16:55;10.0;;;10.0;;
21120;SDS011;12519;43.318;21.898;2022-08-02T07:21:33;9.0;;;9.0;;
21120;SDS011;12519;43.318;21.898;2022-08-02T07:26:09;9.0;;;9.0;;
21120;SDS011;12519;43.318;21.898;2022-08-02T07:30:47;10.0;;;9.0;;
21120;SDS011;12519;43.318;21.898;2022-08-02T07:35:24;10.0;;;9.0;;
21120;SDS011;12519;43.318;21.898;2022-08-02T07:40:01;11.0;;;9.0;;
21120;SDS011;12519;43.318;21.898;2022-08-02T07:44:40;11.0;;;9.0;;
21120;SDS011;12519;43.318;21.898;2022-08-02T07:49:16;11.0;;;9.0;;
21120;SDS011;12519;43.318;21.898;2022-08-02T07:53:52;10.0;;;8.0;;
21120;SDS011;12519;43.318;21.898;2022-08-02T07:58:29;10.0;;;8.0;;
21120;SDS011;12519;43.318;21.898;2022-08-02T08:03:05;8.0;;;8.0;;
21120;SDS011;12519;43.318;21.898;2022-08-02T08:07:41;8.0;;;8.0;;
21120;SDS011;12519;43.318;21.898;2022-08-02T08:12:18;8.0;;;7.0;;
21120;SDS011;12519;43.318;21.898;2022-08-02T08:16:54;8.0;;;7.0;;
21120;SDS011;12519;43.318;21.898;2022-08-02T08:21:31;7.0;;;6.0;;
21120;SDS011;12519;43.318;21.898;2022-08-02T08:26:07;7.0;;;6.0;;
21120;SDS011;12519;43.318;21.898;2022-08-02T08:30:44;8.0;;;6.0;;
21120;SDS011;12519;43.318;21.898;2022-08-02T08:35:21;8.0;;;6.0;;
21120;SDS011;12519;43.318;21.898;2022-08-02T08:39:57;8.0;;;7.0;;
21120;SDS011;12519;43.318;21.898;2022-08-02T08:44:34;8.0;;;7.0;;
21120;SDS011;12519;43.318;21.898;2022-08-02T08:49:24;8.0;;;7.0;;
21120;SDS011;12519;43.318;21.898;2022-08-02T08:54:14;8.0;;;7.0;;
21120;SDS011;12519;43.318;21.898;2022-08-02T08:58:54;8.0;;;7.0;;
21120;SDS011;12519;43.318;21.898;2022-08-02T09:03:31;9.0;;;7.0;;
21120;SDS011;12519;43.318;21.898;2022-08-02T09:08:08;9.0;;;7.0;;
21120;SDS011;12519;43.318;21.898;2022-08-02T09:12:44;8.0;;;6.0;;
21120;SDS011;12519;43.318;21.898;2022-08-02T09:17:20;8.0;;;6.0;;
21120;SDS011;12519;43.318;21.898;2022-08-02T09:22:03;6.0;;;5.0;;
21120;SDS011;12519;43.318;21.898;2022-08-02T09:26:46;6.0;;;5.0;;
21120;SDS011;12519;43.318;21.898;2022-08-02T09:31:27;6.0;;;5.0;;
21120;SDS011;12519;43.318;21.898;2022-08-02T09:36:08;6.0;;;5.0;;
21120;SDS011;12519;43.318;21.898;2022-08-02T09:40:50;5.0;;;5.0;;
21120;SDS011;12519;43.318;21.898;2022-08-02T09:45:30;5.0;;;5.0;;
21120;SDS011;12519;43.318;21.898;2022-08-02T09:50:11;6.0;;;5.0;;
21120;SDS011;12519;43.318;21.898;2022-08-02T09:54:47;6.0;;;5.0;;
21120;SDS011;12519;43.318;21.898;2022-08-02T09:59:28;6.0;;;5.0;;
21120;SDS011;12519;43.318;21.898;2022-08-02T10:04:10;6.0;;;5.0;;
21120;SDS011;12519;43.318;21.898;2022-08-02T10:08:56;6.0;;;5.0;;
21120;SDS011;12519;43.318;21.898;2022-08-02T10:13:35;6.0;;;4.0;;
21120;SDS011;12519;43.318;21.898;2022-08-02T10:18:12;6.0;;;4.0;;
21120;SDS011;12519;43.318;21.898;2022-08-02T10:22:51;5.0;;;4.0;;
21120;SDS011;12519;43.318;21.898;2022-08-02T10:27:37;5.0;;;4.0;;
21120;SDS011;12519;43.318;21.898;2022-08-02T10:32:26;8.0;;;6.0;;
21120;SDS011;12519;43.318;21.898;2022-08-02T10:37:28;8.0;;;6.0;;
21120;SDS011;12519;43.318;21.898;2022-08-02T10:42:46;10.0;;;7.0;;
21120;SDS011;12519;43.318;21.898;2022-08-02T10:47:29;10.0;;;7.0;;
21120;SDS011;12519;43.318;21.898;2022-08-02T10:52:08;8.0;;;6.0;;
21120;SDS011;12519;43.318;21.898;2022-08-02T10:56:46;8.0;;;6.0;;
21120;SDS011;12519;43.318;21.898;2022-08-02T11:01:30;6.0;;;5.0;;
21120;SDS011;12519;43.318;21.898;2022-08-02T11:06:17;6.0;;;5.0;;
21120;SDS011;12519;43.318;21.898;2022-08-02T11:10:58;6.0;;;5.0;;
21120;SDS011;12519;43.318;21.898;2022-08-02T11:15:55;6.0;;;5.0;;
21120;SDS011;12519;43.318;21.898;2022-08-02T11:20:38;5.0;;;5.0;;
21120;SDS011;12519;43.318;21.898;2022-08-02T11:25:32;5.0;;;5.0;;
21120;SDS011;12519;43.318;21.898;2022-08-02T11:30:12;6.0;;;6.0;;
21120;SDS011;12519;43.318;21.898;2022-08-02T11:34:53;6.0;;;6.0;;
21120;SDS011;12519;43.318;21.898;2022-08-02T11:39:29;6.0;;;6.0;;
21120;SDS011;12519;43.318;21.898;2022-08-02T11:44:05;7.0;;;6.0;;
21120;SDS011;12519;43.318;21.898;2022-08-02T11:48:42;7.0;;;6.0;;
21120;SDS011;12519;43.318;21.898;2022-08-02T11:53:18;6.0;;;6.0;;
21120;SDS011;12519;43.318;21.898;2022-08-02T11:57:57;6.0;;;6.0;;
21120;SDS011;12519;43.318;21.898;2022-08-02T12:02:34;6.0;;;5.0;;
21120;SDS011;12519;43.318;21.898;2022-08-02T12:07:10;6.0;;;5.0;;
21120;SDS011;12519;43.318;21.898;2022-08-02T12:11:48;6.0;;;6.0;;
21120;SDS011;12519;43.318;21.898;2022-08-02T12:16:34;6.0;;;6.0;;
21120;SDS011;12519;43.318;21.898;2022-08-02T12:21:25;7.0;;;6.0;;
21120;SDS011;12519;43.318;21.898;2022-08-02T12:26:03;7.0;;;6.0;;
21120;SDS011;12519;43.318;21.898;2022-08-02T12:30:55;8.0;;;6.0;;
21120;SDS011;12519;43.318;21.898;2022-08-02T12:35:35;8.0;;;6.0;;
21120;SDS011;12519;43.318;21.898;2022-08-02T12:40:21;8.0;;;7.0;;
21120;SDS011;12519;43.318;21.898;2022-08-02T12:45:08;8.0;;;7.0;;
21120;SDS011;12519;43.318;21.898;2022-08-02T12:49:45;8.0;;;7.0;;
21120;SDS011;12519;43.318;21.898;2022-08-02T12:54:49;7.0;;;6.0;;
21120;SDS011;12519;43.318;21.898;2022-08-02T12:59:38;7.0;;;6.0;;
21120;SDS011;12519;43.318;21.898;2022-08-02T13:04:28;6.0;;;5.0;;
21120;SDS011;12519;43.318;21.898;2022-08-02T13:09:15;6.0;;;5.0;;
21120;SDS011;12519;43.318;21.898;2022-08-02T13:13:53;6.0;;;5.0;;
21120;SDS011;12519;43.318;21.898;2022-08-02T13:18:31;6.0;;;5.0;;
21120;SDS011;12519;43.318;21.898;2022-08-02T13:23:09;6.0;;;5.0;;
21120;SDS011;12519;43.318;21.898;2022-08-02T13:27:46;6.0;;;5.0;;
21120;SDS011;12519;43.318;21.898;2022-08-02T13:32:24;6.0;;;6.0;;
21120;SDS011;12519;43.318;21.898;2022-08-02T13:37:03;6.0;;;6.0;;
21120;SDS011;12519;43.318;21.898;2022-08-02T13:41:40;7.0;;;6.0;;
21120;SDS011;12519;43.318;21.898;2022-08-02T13:46:17;7.0;;;6.0;;
21120;SDS011;12519;43.318;21.898;2022-08-02T13:50:53;8.0;;;8.0;;
21120;SDS011;12519;43.318;21.898;2022-08-02T13:55:30;8.0;;;8.0;;
21120;SDS011;12519;43.318;21.898;2022-08-02T14:00:10;10.0;;;9.0;;
21120;SDS011;12519;43.318;21.898;2022-08-02T14:04:49;10.0;;;9.0;;
21120;SDS011;12519;43.318;21.898;2022-08-02T14:09:26;10.0;;;9.0;;
21120;SDS011;12519;43.318;21.898;2022-08-02T14:14:02;8.0;;;8.0;;
21120;SDS011;12519;43.318;21.898;2022-08-02T14:18:39;8.0;;;8.0;;
21120;SDS011;12519;43.318;21.898;2022-08-02T14:23:15;7.0;;;6.0;;
21120;SDS011;12519;43.318;21.898;2022-08-02T14:27:52;7.0;;;6.0;;
21120;SDS011;12519;43.318;21.898;2022-08-02T14:32:28;7.0;;;6.0;;
21120;SDS011;12519;43.318;21.898;2022-08-02T14:37:04;7.0;;;6.0;;
21120;SDS011;12519;43.318;21.898;2022-08-02T14:41:40;7.0;;;6.0;;
21120;SDS011;12519;43.318;21.898;2022-08-02T14:46:16;7.0;;;6.0;;
21120;SDS011;12519;43.318;21.898;2022-08-02T14:50:53;6.0;;;6.0;;
21120;SDS011;12519;43.318;21.898;2022-08-02T14:55:30;6.0;;;6.0;;
21120;SDS011;12519;43.318;21.898;2022-08-02T15:00:09;6.0;;;6.0;;
21120;SDS011;12519;43.318;21.898;2022-08-02T15:04:48;6.0;;;6.0;;
21120;SDS011;12519;43.318;21.898;2022-08-02T15:09:24;6.0;;;6.0;;
21120;SDS011;12519;43.318;21.898;2022-08-02T15:14:00;8.0;;;7.0;;
21120;SDS011;12519;43.318;21.898;2022-08-02T15:18:37;8.0;;;7.0;;
21120;SDS011;12519;43.318;21.898;2022-08-02T15:23:14;9.0;;;8.0;;
21120;SDS011;12519;43.318;21.898;2022-08-02T15:27:52;9.0;;;8.0;;
21120;SDS011;12519;43.318;21.898;2022-08-02T15:32:28;9.0;;;8.0;;
21120;SDS011;12519;43.318;21.898;2022-08-02T15:37:05;9.0;;;8.0;;
21120;SDS011;12519;43.318;21.898;2022-08-02T15:50:56;7.0;;;6.0;;
21120;SDS011;12519;43.318;21.898;2022-08-02T15:55:33;7.0;;;6.0;;
21120;SDS011;12519;43.318;21.898;2022-08-02T16:00:14;7.0;;;6.0;;
21120;SDS011;12519;43.318;21.898;2022-08-02T16:04:51;7.0;;;6.0;;
21120;SDS011;12519;43.318;21.898;2022-08-02T16:09:28;7.0;;;6.0;;
21120;SDS011;12519;43.318;21.898;2022-08-02T16:14:05;6.0;;;6.0;;
21120;SDS011;12519;43.318;21.898;2022-08-02T16:18:43;6.0;;;6.0;;
21120;SDS011;12519;43.318;21.898;2022-08-02T16:23:19;6.0;;;5.0;;
21120;SDS011;12519;43.318;21.898;2022-08-02T16:27:56;6.0;;;5.0;;
21120;SDS011;12519;43.318;21.898;2022-08-02T16:32:32;6.0;;;5.0;;
21120;SDS011;12519;43.318;21.898;2022-08-02T16:37:09;6.0;;;5.0;;
21120;SDS011;12519;43.318;21.898;2022-08-02T16:41:45;6.0;;;5.0;;
21120;SDS011;12519;43.318;21.898;2022-08-02T16:46:22;6.0;;;5.0;;
21120;SDS011;12519;43.318;21.898;2022-08-02T16:50:58;6.0;;;6.0;;
21120;SDS011;12519;43.318;21.898;2022-08-02T16:55:36;6.0;;;6.0;;
21120;SDS011;12519;43.318;21.898;2022-08-02T17:00:14;6.0;;;6.0;;
21120;SDS011;12519;43.318;21.898;2022-08-02T17:04:50;6.0;;;6.0;;
21120;SDS011;12519;43.318;21.898;2022-08-02T17:09:26;6.0;;;6.0;;
21120;SDS011;12519;43.318;21.898;2022-08-02T17:14:02;7.0;;;6.0;;
21120;SDS011;12519;43.318;21.898;2022-08-02T17:18:38;7.0;;;6.0;;
21120;SDS011;12519;43.318;21.898;2022-08-02T17:23:14;8.0;;;7.0;;
21120;SDS011;12519;43.318;21.898;2022-08-02T17:27:52;8.0;;;7.0;;
21120;SDS011;12519;43.318;21.898;2022-08-02T17:32:28;8.0;;;7.0;;
21120;SDS011;12519;43.318;21.898;2022-08-02T17:37:05;8.0;;;7.0;;
21120;SDS011;12519;43.318;21.898;2022-08-02T17:41:42;8.0;;;7.0;;
21120;SDS011;12519;43.318;21.898;2022-08-02T17:46:19;8.0;;;7.0;;
21120;SDS011;12519;43.318;21.898;2022-08-02T17:50:55;8.0;;;7.0;;
21120;SDS011;12519;43.318;21.898;2022-08-02T17:55:32;8.0;;;7.0;;
21120;SDS011;12519;43.318;21.898;2022-08-02T18:00:11;8.0;;;7.0;;
21120;SDS011;12519;43.318;21.898;2022-08-02T18:04:53;7.0;;;7.0;;
21120;SDS011;12519;43.318;21.898;2022-08-02T18:09:31;7.0;;;7.0;;
21120;SDS011;12519;43.318;21.898;2022-08-02T18:14:08;10.0;;;10.0;;
21120;SDS011;12519;43.318;21.898;2022-08-02T18:18:49;10.0;;;10.0;;
21120;SDS011;12519;43.318;21.898;2022-08-02T18:23:26;14.0;;;13.0;;
21120;SDS011;12519;43.318;21.898;2022-08-02T18:28:04;14.0;;;13.0;;
21120;SDS011;12519;43.318;21.898;2022-08-02T18:32:40;11.0;;;10.0;;
21120;SDS011;12519;43.318;21.898;2022-08-02T18:37:17;11.0;;;10.0;;
21120;SDS011;12519;43.318;21.898;2022-08-02T18:41:54;8.0;;;7.0;;
21120;SDS011;12519;43.318;21.898;2022-08-02T18:46:31;8.0;;;7.0;;
21120;SDS011;12519;43.318;21.898;2022-08-02T18:51:09;8.0;;;7.0;;
21120;SDS011;12519;43.318;21.898;2022-08-02T18:55:46;8.0;;;7.0;;
21120;SDS011;12519;43.318;21.898;2022-08-02T19:00:24;8.0;;;7.0;;
21120;SDS011;12519;43.318;21.898;2022-08-02T19:14:12;12.0;;;9.0;;
21120;SDS011;12519;43.318;21.898;2022-08-02T19:18:49;12.0;;;9.0;;
21120;SDS011;12519;43.318;21.898;2022-08-02T19:23:25;12.0;;;9.0;;
21120;SDS011;12519;43.318;21.898;2022-08-02T19:28:01;12.0;;;9.0;;
21120;SDS011;12519;43.318;21.898;2022-08-02T19:32:38;11.0;;;9.0;;
21120;SDS011;12519;43.318;21.898;2022-08-02T19:37:14;11.0;;;9.0;;
21120;SDS011;12519;43.318;21.898;2022-08-02T19:41:50;10.0;;;9.0;;
21120;SDS011;12519;43.318;21.898;2022-08-02T19:46:26;10.0;;;9.0;;
21120;SDS011;12519;43.318;21.898;2022-08-02T19:51:03;9.0;;;8.0;;
21120;SDS011;12519;43.318;21.898;2022-08-02T19:55:39;9.0;;;8.0;;
21120;SDS011;12519;43.318;21.898;2022-08-02T20:00:15;9.0;;;8.0;;
21120;SDS011;12519;43.318;21.898;2022-08-02T20:04:52;8.0;;;8.0;;
21120;SDS011;12519;43.318;21.898;2022-08-02T20:09:29;8.0;;;8.0;;
21120;SDS011;12519;43.318;21.898;2022-08-02T20:14:05;10.0;;;8.0;;
21120;SDS011;12519;43.318;21.898;2022-08-02T20:18:43;10.0;;;8.0;;
21120;SDS011;12519;43.318;21.898;2022-08-02T20:23:19;11.0;;;9.0;;
21120;SDS011;12519;43.318;21.898;2022-08-02T20:27:56;11.0;;;9.0;;
21120;SDS011;12519;43.318;21.898;2022-08-02T20:32:32;10.0;;;9.0;;
21120;SDS011;12519;43.318;21.898;2022-08-02T20:37:09;10.0;;;9.0;;
21120;SDS011;12519;43.318;21.898;2022-08-02T20:41:46;10.0;;;9.0;;
21120;SDS011;12519;43.318;21.898;2022-08-02T20:46:24;10.0;;;9.0;;
21120;SDS011;12519;43.318;21.898;2022-08-02T20:51:00;12.0;;;10.0;;
21120;SDS011;12519;43.318;21.898;2022-08-02T20:55:43;12.0;;;10.0;;
21120;SDS011;12519;43.318;21.898;2022-08-02T21:00:29;12.0;;;10.0;;
21120;SDS011;12519;43.318;21.898;2022-08-02T21:05:08;13.0;;;10.0;;
21120;SDS011;12519;43.318;21.898;2022-08-02T21:09:45;13.0;;;10.0;;
21120;SDS011;12519;43.318;21.898;2022-08-02T21:14:22;11.0;;;9.0;;
21120;SDS011;12519;43.318;21.898;2022-08-02T21:18:59;11.0;;;9.0;;
21120;SDS011;12519;43.318;21.898;2022-08-02T21:23:36;9.0;;;8.0;;
21120;SDS011;12519;43.318;21.898;2022-08-02T21:28:13;9.0;;;8.0;;
21120;SDS011;12519;43.318;21.898;2022-08-02T21:32:49;9.0;;;8.0;;
21120;SDS011;12519;43.318;21.898;2022-08-02T21:37:26;9.0;;;8.0;;
21120;SDS011;12519;43.318;21.898;2022-08-02T21:42:03;9.0;;;8.0;;
21120;SDS011;12519;43.318;21.898;2022-08-02T21:46:39;9.0;;;8.0;;
21120;SDS011;12519;43.318;21.898;2022-08-02T21:51:15;9.0;;;8.0;;
21120;SDS011;12519;43.318;21.898;2022-08-02T21:55:51;9.0;;;8.0;;
21120;SDS011;12519;43.318;21.898;2022-08-02T22:00:27;9.0;;;8.0;;
21120;SDS011;12519;43.318;21.898;2022-08-02T22:05:04;9.0;;;7.0;;
21120;SDS011;12519;43.318;21.898;2022-08-02T22:09:43;9.0;;;7.0;;
21120;SDS011;12519;43.318;21.898;2022-08-02T22:14:20;8.0;;;6.0;;
21120;SDS011;12519;43.318;21.898;2022-08-02T22:18:56;8.0;;;6.0;;
21120;SDS011;12519;43.318;21.898;2022-08-02T22:23:32;7.0;;;6.0;;
21120;SDS011;12519;43.318;21.898;2022-08-02T22:28:12;7.0;;;6.0;;
21120;SDS011;12519;43.318;21.898;2022-08-02T22:32:52;6.0;;;6.0;;
21120;SDS011;12519;43.318;21.898;2022-08-02T22:37:29;6.0;;;6.0;;
21120;SDS011;12519;43.318;21.898;2022-08-02T22:42:05;6.0;;;6.0;;
21120;SDS011;12519;43.318;21.898;2022-08-02T22:46:41;6.0;;;6.0;;
21120;SDS011;12519;43.318;21.898;2022-08-02T22:51:18;6.0;;;6.0;;
21120;SDS011;12519;43.318;21.898;2022-08-02T22:55:54;6.0;;;6.0;;
21120;SDS011;12519;43.318;21.898;2022-08-02T23:00:31;6.0;;;6.0;;
21120;SDS011;12519;43.318;21.898;2022-08-02T23:05:08;5.0;;;5.0;;
21120;SDS011;12519;43.318;21.898;2022-08-02T23:09:44;5.0;;;5.0;;
21120;SDS011;12519;43.318;21.898;2022-08-02T23:14:20;6.0;;;6.0;;
21120;SDS011;12519;43.318;21.898;2022-08-02T23:18:57;6.0;;;6.0;;
21120;SDS011;12519;43.318;21.898;2022-08-02T23:23:34;6.0;;;6.0;;
21120;SDS011;12519;43.318;21.898;2022-08-02T23:28:10;6.0;;;6.0;;
21120;SDS011;12519;43.318;21.898;2022-08-02T23:32:47;7.0;;;6.0;;
21120;SDS011;12519;43.318;21.898;2022-08-02T23:37:24;7.0;;;6.0;;
21120;SDS011;12519;43.318;21.898;2022-08-02T23:42:02;8.0;;;6.0;;
21120;SDS011;12519;43.318;21.898;2022-08-02T23:46:41;8.0;;;6.0;;
21120;SDS011;12519;43.318;21.898;2022-08-02T23:51:21;7.0;;;6.0;;
21120;SDS011;12519;43.318;21.898;2022-08-02T23:55:57;7.0;;;6.0;;
